»·PEaware :: AAL518 KPHX-KSFO

AAL518 :: KPHX-KSFO

FLIGHT INFORMATION

Flight Status: Arrived
Operator:
American Airlines
More flights by this operator :: More flights under this callsign
Pilot: Mike G. (10864)
Aircraft: BOEING 737-800
(B738)
More flights by this aircraft type
Origin: KPHX Phoenix Sky Harbor Intl
United States
Destination: KSFO San Francisco Intl
United States
More flights between these airports :: More routes between these airports
Route: KEENS2 HRRBR CURIV J212 DECAS BOILE AVE MAKRS SERFR SERFR4
File this flight plan on PilotEdge
Remarks: RMK / SIMBRIEF
Altitude:
(Current/Filed)
36,000ft
Speed:
(Current/Filed)
471kts
Departed: 12-Nov-20 01:06 PM
Arrived: 12-Nov-20 03:15 PM
Distance/Time
Traveled:
565nm/2:09
Distance/Time
To Go:
Arrived

Flight Plot

Page will automatically refresh every two minutes.

Flight plan parsing failed; only flown route is shown


Map Options




Map Legend


Flown Route
Filed Route
Departure Airport
Arrival Airport
Navaid (VOR, NDB)
Fix

Horizontal Profiles

Position Reports

Time Latitude Longitude Heading Altitude Ground
Speed
12-Nov-20 12:33 33.433740 -111.998742 319 1127ft 0kts
12-Nov-20 12:34 33.433740 -111.998742 319 1127ft 0kts
12-Nov-20 12:35 33.433740 -111.998742 319 1126ft 0kts
12-Nov-20 12:36 33.433740 -111.998742 319 1126ft 0kts
12-Nov-20 12:37 33.433740 -111.998742 319 1126ft 0kts
12-Nov-20 12:38 33.433740 -111.998742 319 1126ft 0kts
12-Nov-20 12:39 33.433740 -111.998742 319 1126ft 0kts
12-Nov-20 12:40 33.433740 -111.998742 319 1126ft 0kts
12-Nov-20 12:41 33.433740 -111.998742 319 1126ft 0kts
12-Nov-20 12:42 33.433740 -111.998742 319 1126ft 0kts
12-Nov-20 12:43 33.433740 -111.998742 319 1126ft 0kts
12-Nov-20 12:44 33.433740 -111.998742 319 1126ft 0kts
12-Nov-20 12:45 33.433740 -111.998742 319 1126ft 0kts
12-Nov-20 12:46 33.433740 -111.998742 319 1126ft 0kts
12-Nov-20 12:47 33.433740 -111.998742 319 1126ft 0kts
12-Nov-20 12:48 33.433740 -111.998742 319 1126ft 0kts
12-Nov-20 12:49 33.433740 -111.998742 319 1126ft 0kts
12-Nov-20 12:50 33.433740 -111.998742 319 1126ft 0kts
12-Nov-20 12:51 33.433740 -111.998742 319 1126ft 0kts
12-Nov-20 12:52 33.433740 -111.998742 319 1126ft 0kts
12-Nov-20 12:53 33.433740 -111.998742 319 1126ft 0kts
12-Nov-20 12:54 33.433740 -111.998742 319 1126ft 0kts
12-Nov-20 12:55 33.433444 -111.998247 266 1126ft 2kts
12-Nov-20 12:56 33.433457 -111.998027 270 1126ft 0kts
12-Nov-20 12:57 33.433457 -111.998027 270 1126ft 0kts
12-Nov-20 12:58 33.433457 -111.998027 270 1126ft 0kts
12-Nov-20 12:59 33.433310 -111.998595 223 1126ft 11kts
12-Nov-20 13:00 33.432844 -112.003156 267 1128ft 25kts
12-Nov-20 13:01 33.432857 -112.010783 270 1129ft 21kts
12-Nov-20 13:02 33.432873 -112.018033 269 1122ft 21kts
12-Nov-20 13:03 33.432862 -112.025286 269 1119ft 20kts
12-Nov-20 13:04 33.431067 -112.026144 90 1117ft 0kts
12-Nov-20 13:05 33.431122 -111.999387 88 1328ft 169kts
12-Nov-20 13:06 33.433600 -111.932032 88 3548ft 235kts
12-Nov-20 13:07 33.417625 -111.857273 139 6456ft 247kts
12-Nov-20 13:08 33.358112 -111.866922 241 9452ft 246kts
12-Nov-20 13:09 33.357552 -111.949358 276 11795ft 282kts
12-Nov-20 13:10 33.369611 -112.053623 278 13748ft 331kts
12-Nov-20 13:11 33.385966 -112.161843 277 16781ft 332kts
12-Nov-20 13:12 33.402110 -112.270705 276 19477ft 334kts
12-Nov-20 13:13 33.418327 -112.380470 275 21877ft 337kts
12-Nov-20 13:14 33.434567 -112.491177 274 23852ft 340kts
12-Nov-20 13:15 33.448968 -112.602945 269 25623ft 339kts
12-Nov-20 13:16 33.451760 -112.715914 265 27422ft 340kts
12-Nov-20 13:17 33.460054 -112.829408 272 29051ft 349kts
12-Nov-20 13:18 33.480048 -112.944642 273 30399ft 357kts
12-Nov-20 13:19 33.501676 -113.060942 272 31929ft 355kts
12-Nov-20 13:20 33.522774 -113.174186 272 33619ft 344kts
12-Nov-20 13:21 33.543202 -113.284838 271 34901ft 340kts
12-Nov-20 13:22 33.563317 -113.394101 271 36017ft 336kts
12-Nov-20 13:23 33.583354 -113.503441 271 36064ft 333kts
12-Nov-20 13:24 33.603238 -113.611828 271 36076ft 333kts
12-Nov-20 13:25 33.623306 -113.720343 271 36093ft 333kts
12-Nov-20 13:26 33.643311 -113.828561 271 36102ft 333kts
12-Nov-20 13:27 33.663183 -113.936846 271 36100ft 333kts
12-Nov-20 13:28 33.683081 -114.045383 271 36101ft 333kts
12-Nov-20 13:29 33.702890 -114.153588 271 36102ft 333kts
12-Nov-20 13:30 33.722613 -114.261856 271 36100ft 333kts
12-Nov-20 13:31 33.742365 -114.370662 271 36100ft 331kts
12-Nov-20 13:32 33.761804 -114.478608 271 36100ft 331kts
12-Nov-20 13:33 33.775669 -114.586771 265 36100ft 325kts
12-Nov-20 13:34 33.782038 -114.694757 264 36101ft 324kts
12-Nov-20 13:35 33.788158 -114.802950 265 36101ft 323kts
12-Nov-20 13:36 33.794300 -114.910224 264 36101ft 324kts
12-Nov-20 13:37 33.800405 -115.018759 265 36100ft 326kts
12-Nov-20 13:38 33.806515 -115.128978 265 36100ft 336kts
12-Nov-20 13:39 33.812732 -115.242046 265 36097ft 341kts
12-Nov-20 13:40 33.818872 -115.355081 265 36085ft 338kts
12-Nov-20 13:41 33.829365 -115.467440 272 36074ft 347kts
12-Nov-20 13:42 33.854202 -115.580233 275 36073ft 353kts
12-Nov-20 13:43 33.881822 -115.694381 275 36073ft 354kts
12-Nov-20 13:44 33.909035 -115.806651 275 36072ft 350kts
12-Nov-20 13:45 33.936400 -115.919831 275 36080ft 352kts
12-Nov-20 13:46 33.963650 -116.032766 275 36096ft 351kts
12-Nov-20 13:47 33.990804 -116.145850 275 36113ft 352kts
12-Nov-20 13:48 34.017763 -116.258527 275 36117ft 350kts
12-Nov-20 13:49 34.044723 -116.371865 275 36102ft 352kts
12-Nov-20 13:50 34.071615 -116.485362 275 36090ft 354kts
12-Nov-20 13:51 34.098421 -116.598900 275 36092ft 352kts
12-Nov-20 13:52 34.125033 -116.712488 275 36088ft 351kts
12-Nov-20 13:53 34.151393 -116.825617 275 36085ft 352kts
12-Nov-20 13:54 34.177924 -116.939625 275 36081ft 353kts
12-Nov-20 13:55 34.204558 -117.054709 276 36082ft 360kts
12-Nov-20 13:56 34.231734 -117.172370 276 36080ft 365kts
12-Nov-20 13:57 34.258775 -117.289892 276 36085ft 363kts
12-Nov-20 13:58 34.285620 -117.407308 276 36093ft 363kts
12-Nov-20 13:59 34.312283 -117.524475 276 36101ft 364kts
12-Nov-20 14:00 34.339046 -117.642618 276 36108ft 362kts
12-Nov-20 14:01 34.365508 -117.760759 275 36106ft 365kts
12-Nov-20 14:02 34.391893 -117.878457 275 36103ft 362kts
12-Nov-20 14:03 34.421454 -117.995093 283 36107ft 372kts
12-Nov-20 14:05 34.476201 -118.104952 293 36109ft 388kts
12-Nov-20 14:06 34.541250 -118.209636 294 36108ft 391kts
12-Nov-20 14:07 34.607689 -118.313832 295 36110ft 389kts
12-Nov-20 14:08 34.674044 -118.417707 295 36108ft 391kts
12-Nov-20 14:09 34.740547 -118.522002 295 36112ft 391kts
12-Nov-20 14:10 34.807054 -118.626557 295 36121ft 392kts
12-Nov-20 14:11 34.873557 -118.731545 295 36127ft 393kts
12-Nov-20 14:12 34.939905 -118.836571 296 36126ft 394kts
12-Nov-20 14:13 35.007160 -118.943292 299 36118ft 403kts
12-Nov-20 14:14 35.076418 -119.053419 302 36109ft 412kts
12-Nov-20 14:15 35.145749 -119.163928 302 36109ft 411kts
12-Nov-20 14:16 35.214805 -119.274431 302 36109ft 410kts
12-Nov-20 14:17 35.283327 -119.384471 302 36109ft 411kts
12-Nov-20 14:18 35.352826 -119.496373 302 36109ft 410kts
12-Nov-20 14:19 35.421834 -119.607875 301 36109ft 410kts
12-Nov-20 14:19 35.479354 -119.701087 301 36109ft 411kts
12-Nov-20 14:21 35.559343 -119.831188 301 36105ft 410kts
12-Nov-20 14:21 35.616018 -119.925083 294 36097ft 407kts
12-Nov-20 14:23 35.656610 -120.075359 274 36091ft 395kts
12-Nov-20 14:23 35.667715 -120.186996 273 36091ft 394kts
12-Nov-20 14:25 35.690726 -120.341847 284 36092ft 399kts
12-Nov-20 14:26 35.732358 -120.469169 290 36091ft 403kts
12-Nov-20 14:26 35.771117 -120.573507 290 36092ft 404kts
12-Nov-20 14:27 35.818489 -120.698609 290 36091ft 404kts
12-Nov-20 14:28 35.865824 -120.823479 290 36092ft 404kts
12-Nov-20 14:29 35.913204 -120.948696 290 36092ft 402kts
12-Nov-20 14:30 35.960262 -121.073479 291 36091ft 402kts
12-Nov-20 14:31 36.007494 -121.199231 292 36088ft 406kts
12-Nov-20 14:32 36.058515 -121.326110 303 33716ft 410kts
12-Nov-20 14:33 36.144188 -121.418716 322 31244ft 407kts
12-Nov-20 14:34 36.236414 -121.494581 324 29247ft 391kts
12-Nov-20 14:35 36.325960 -121.565491 325 27285ft 377kts
12-Nov-20 14:36 36.412935 -121.633912 326 25364ft 363kts
12-Nov-20 14:37 36.496424 -121.699683 326 23501ft 352kts
12-Nov-20 14:38 36.578034 -121.764432 326 21654ft 342kts
12-Nov-20 14:39 36.657061 -121.827054 327 19855ft 334kts
12-Nov-20 14:40 36.734877 -121.887146 335 18082ft 326kts
12-Nov-20 14:41 36.821890 -121.916792 347 16182ft 323kts
12-Nov-20 14:42 36.908737 -121.940879 347 14437ft 316kts
12-Nov-20 14:43 36.992552 -121.968638 342 12723ft 311kts
12-Nov-20 14:44 37.074606 -122.000895 341 11012ft 306kts
12-Nov-20 14:45 37.152477 -122.031308 341 10115ft 270kts
12-Nov-20 14:46 37.223136 -122.058993 341 8943ft 266kts
12-Nov-20 14:47 37.293672 -122.086694 341 7641ft 266kts
12-Nov-20 14:48 37.362368 -122.113789 342 6244ft 248kts
12-Nov-20 14:49 37.421882 -122.134860 344 5869ft 207kts
12-Nov-20 14:50 37.481193 -122.155217 344 4100ft 222kts
12-Nov-20 14:51 37.532604 -122.182659 319 2941ft 173kts
12-Nov-20 14:52 37.557306 -122.228640 299 2166ft 157kts
12-Nov-20 14:53 37.577190 -122.276098 299 1398ft 156kts
12-Nov-20 14:54 37.597911 -122.325447 299 592ft 155kts
12-Nov-20 14:55 37.617893 -122.373026 301 29ft 145kts
12-Nov-20 14:56 37.632220 -122.419073 291 1322ft 159kts
12-Nov-20 14:57 37.655581 -122.480429 279 3143ft 229kts
12-Nov-20 14:58 37.665883 -122.569245 311 4008ft 255kts
12-Nov-20 14:59 37.688045 -122.647591 247 4012ft 256kts
12-Nov-20 15:00 37.625225 -122.646231 127 4013ft 274kts
12-Nov-20 15:01 37.592034 -122.560185 113 4010ft 274kts
12-Nov-20 15:02 37.560926 -122.473006 112 4005ft 272kts
12-Nov-20 15:03 37.529904 -122.386136 112 4004ft 271kts
12-Nov-20 15:04 37.499645 -122.300886 113 4004ft 259kts
12-Nov-20 15:05 37.470052 -122.216946 113 3998ft 262kts
12-Nov-20 15:06 37.440419 -122.133374 113 3999ft 262kts
12-Nov-20 15:07 37.464770 -122.081093 335 3567ft 202kts
12-Nov-20 15:08 37.510057 -122.121775 309 2997ft 199kts
12-Nov-20 15:09 37.535868 -122.178638 298 2988ft 169kts
12-Nov-20 15:10 37.557576 -122.230008 298 2225ft 152kts
12-Nov-20 15:11 37.577075 -122.276179 298 1427ft 148kts
12-Nov-20 15:12 37.596380 -122.322000 299 673ft 147kts
12-Nov-20 15:13 37.615197 -122.366658 299 15ft 122kts
12-Nov-20 15:14 37.619680 -122.379245 234 32ft 0kts
12-Nov-20 15:15 37.619062 -122.380302 255 33ft 10kts
12-Nov-20 15:16 37.618364 -122.382047 140 33ft 0kts

Navigation Log

Ident Type
Flight plan parsing failed, navigation log unavailable